Time;durP1;ratioP1;P1;durP2;ratioP2;P2;SDS_P1;SDS_P2;PMS_P1;PMS_P2;Temp;Humidity;BMP_temperature;BMP_pressure;BME280_temperature;BME280_humidity;BME280_pressure;Samples;Min_cycle;Max_cycle;Signal;HPM_P1;HPM_P2
2021/12/20 00:01:21;;;;;;;11.97;6.17;;;8.30;99.90;;;;;;5113703;28;20454;-66
2021/12/20 00:03:47;;;;;;;10.13;5.30;;;8.30;99.90;;;;;;5113509;28;20478;-66
2021/12/20 00:06:14;;;;;;;10.10;6.90;;;8.30;99.90;;;;;;5113891;28;20446;-66
2021/12/20 00:08:41;;;;;;;7.87;5.87;;;8.20;99.90;;;;;;5117386;28;20439;-66
2021/12/20 00:11:08;;;;;;;10.23;5.03;;;8.20;99.90;;;;;;5117656;28;20799;-66
2021/12/20 00:13:35;;;;;;;8.00;6.20;;;8.20;99.90;;;;;;5117236;28;20462;-66
2021/12/20 00:16:03;;;;;;;10.43;6.17;;;8.20;99.90;;;;;;5117548;28;20435;-66
2021/12/20 00:18:29;;;;;;;9.80;5.63;;;8.20;99.90;;;;;;5117505;28;20476;-66
2021/12/20 00:20:56;;;;;;;10.17;5.80;;;8.20;99.90;;;;;;5117485;28;20451;-66
2021/12/20 00:23:23;;;;;;;14.97;6.50;;;8.20;99.90;;;;;;5117317;28;20514;-66
2021/12/20 00:25:50;;;;;;;10.93;6.10;;;8.20;99.90;;;;;;5117404;28;20438;-66
2021/12/20 00:28:18;;;;;;;9.40;6.13;;;8.20;99.90;;;;;;5117310;28;20450;-66
2021/12/20 00:30:45;;;;;;;8.80;6.00;;;8.20;99.90;;;;;;5116959;28;20952;-67
2021/12/20 00:33:14;;;;;;;8.77;6.63;;;8.20;99.90;;;;;;5117229;28;20455;-66
2021/12/20 00:35:41;;;;;;;10.73;6.10;;;8.20;99.90;;;;;;5117179;28;20811;-66
2021/12/20 00:41:00;;;;;;;8.77;6.03;;;8.30;99.90;;;;;;5092021;28;20930;-66
2021/12/20 00:43:27;;;;;;;9.40;6.27;;;8.20;99.90;;;;;;5116911;28;20487;-66
2021/12/20 00:45:55;;;;;;;9.63;6.73;;;8.20;99.90;;;;;;5117001;28;20443;-66
2021/12/20 00:48:23;;;;;;;8.73;7.27;;;8.20;99.90;;;;;;5116928;28;20446;-66
2021/12/20 00:50:49;;;;;;;9.90;6.27;;;8.30;99.90;;;;;;5116881;28;20786;-66
2021/12/20 00:53:16;;;;;;;12.37;5.90;;;8.30;99.90;;;;;;5116741;28;20482;-66
2021/12/20 00:55:44;;;;;;;8.67;5.83;;;8.40;99.90;;;;;;5116507;28;20445;-66
2021/12/20 00:58:10;;;;;;;9.17;5.97;;;8.40;99.90;;;;;;5116596;28;20453;-66
2021/12/20 01:00:41;;;;;;;8.73;6.67;;;8.30;99.90;;;;;;5116381;28;20804;-66
2021/12/20 01:03:09;;;;;;;10.40;6.43;;;8.30;99.90;;;;;;5116585;28;20482;-66
2021/12/20 01:05:39;;;;;;;8.73;6.27;;;8.40;99.90;;;;;;5116654;28;20460;-66
2021/12/20 01:08:07;;;;;;;9.50;5.70;;;8.40;99.90;;;;;;5116590;28;20528;-66
2021/12/20 01:10:35;;;;;;;12.00;6.67;;;8.40;99.90;;;;;;5116195;27;20446;-66
2021/12/20 01:13:03;;;;;;;10.20;7.73;;;8.50;99.90;;;;;;5116367;28;20549;-66
2021/12/20 01:15:33;;;;;;;12.43;6.80;;;8.50;99.90;;;;;;5116356;28;20454;-66
2021/12/20 01:18:00;;;;;;;8.73;5.90;;;8.50;99.90;;;;;;5115268;28;20461;-66
2021/12/20 01:20:28;;;;;;;7.33;5.40;;;8.50;99.90;;;;;;5116287;28;20455;-66
2021/12/20 01:22:56;;;;;;;8.00;5.50;;;8.50;99.90;;;;;;5116091;28;20469;-66
2021/12/20 01:25:24;;;;;;;9.43;5.70;;;8.50;99.90;;;;;;5116236;28;20446;-66
2021/12/20 01:27:51;;;;;;;11.60;5.10;;;8.50;99.90;;;;;;5116132;28;20450;-66
2021/12/20 01:30:21;;;;;;;11.90;4.67;;;8.50;99.90;;;;;;5115785;28;20819;-66
2021/12/20 01:32:48;;;;;;;8.20;3.90;;;8.50;99.90;;;;;;5115679;28;20466;-66
2021/12/20 01:35:15;;;;;;;13.67;4.30;;;8.50;99.90;;;;;;5115719;27;20936;-66
2021/12/20 01:37:42;;;;;;;10.23;4.17;;;8.50;99.90;;;;;;5115974;28;20439;-66
2021/12/20 01:40:14;;;;;;;8.97;4.30;;;8.50;99.90;;;;;;5115963;28;20427;-66
2021/12/20 01:42:41;;;;;;;8.73;4.10;;;8.50;99.90;;;;;;5116347;28;20485;-66
2021/12/20 01:45:13;;;;;;;5.87;3.70;;;8.50;99.90;;;;;;5115917;28;20478;-66
2021/12/20 01:47:44;;;;;;;10.80;3.90;;;8.50;99.90;;;;;;5115506;28;20493;-66
2021/12/20 01:50:17;;;;;;;7.80;3.83;;;8.60;99.90;;;;;;5115427;28;20984;-66
2021/12/20 01:52:44;;;;;;;7.40;3.93;;;8.60;99.90;;;;;;5115359;28;20980;-66
2021/12/20 01:55:14;;;;;;;6.50;3.70;;;8.60;99.90;;;;;;5115414;28;20427;-66
2021/12/20 01:57:41;;;;;;;5.80;3.00;;;8.50;99.90;;;;;;5116639;28;20796;-66
2021/12/20 02:00:11;;;;;;;6.40;3.33;;;8.50;99.90;;;;;;5115180;28;20469;-66
2021/12/20 02:02:38;;;;;;;5.13;3.00;;;8.50;99.90;;;;;;5115455;28;20471;-66
2021/12/20 02:05:16;;;;;;;6.33;3.30;;;8.50;99.90;;;;;;5115389;27;20475;-66
2021/12/20 02:07:51;;;;;;;10.03;3.90;;;8.50;99.90;;;;;;5115407;28;20438;-66
2021/12/20 02:10:19;;;;;;;8.33;3.70;;;8.50;99.90;;;;;;5115461;28;20435;-66
2021/12/20 02:12:46;;;;;;;6.67;4.27;;;8.50;99.90;;;;;;5115357;28;20466;-66
2021/12/20 02:15:13;;;;;;;6.53;4.33;;;8.50;99.90;;;;;;5115354;28;20454;-66
2021/12/20 02:17:40;;;;;;;9.07;4.73;;;8.50;99.90;;;;;;5115388;28;20458;-66
2021/12/20 02:20:09;;;;;;;9.77;4.10;;;8.50;99.90;;;;;;5115314;28;20446;-66
2021/12/20 02:22:38;;;;;;;10.40;4.13;;;8.40;99.90;;;;;;5115076;28;20820;-66
2021/12/20 02:25:06;;;;;;;10.50;4.50;;;8.40;99.90;;;;;;5114962;28;20485;-66
2021/12/20 02:27:33;;;;;;;11.67;4.67;;;8.40;99.90;;;;;;5115054;28;20427;-66
2021/12/20 02:30:07;;;;;;;13.93;4.67;;;8.30;99.90;;;;;;5114426;28;20928;-66
2021/12/20 02:38:18;;;;;;;15.33;4.03;;;8.20;99.90;;;;;;5114899;28;20954;-66
2021/12/20 02:40:46;;;;;;;9.83;3.90;;;8.20;99.90;;;;;;5114749;28;20443;-66
2021/12/20 02:43:16;;;;;;;8.57;4.10;;;8.20;99.90;;;;;;5114472;28;20471;-66
2021/12/20 02:45:43;;;;;;;6.87;4.40;;;8.20;99.90;;;;;;5114635;28;20484;-66
2021/12/20 02:48:10;;;;;;;11.40;4.30;;;8.20;99.90;;;;;;5114569;28;20446;-66
2021/12/20 02:50:38;;;;;;;7.50;4.10;;;8.20;99.90;;;;;;5114574;28;20450;-66
2021/12/20 02:53:05;;;;;;;8.37;4.10;;;8.20;99.90;;;;;;5114712;28;20826;-66
2021/12/20 02:55:32;;;;;;;7.10;4.20;;;8.20;99.90;;;;;;5115037;28;20434;-66
2021/12/20 02:57:58;;;;;;;7.80;3.90;;;8.20;99.90;;;;;;5114496;28;20454;-66
2021/12/20 03:00:25;;;;;;;7.53;3.90;;;8.30;99.90;;;;;;5115096;28;20466;-66
2021/12/20 03:02:52;;;;;;;9.40;4.03;;;8.30;99.90;;;;;;5114393;28;20515;-66
2021/12/20 03:05:19;;;;;;;9.43;3.20;;;8.20;99.90;;;;;;5114349;28;20482;-66
2021/12/20 03:07:47;;;;;;;15.37;3.97;;;8.20;99.90;;;;;;5114291;28;20470;-66
2021/12/20 03:10:15;;;;;;;14.43;4.30;;;8.20;99.90;;;;;;5114261;28;20523;-66
2021/12/20 03:12:42;;;;;;;10.10;4.30;;;8.20;99.90;;;;;;5114198;28;20462;-66
2021/12/20 03:15:13;;;;;;;11.57;4.03;;;8.10;99.90;;;;;;5114196;28;20808;-66
2021/12/20 03:17:40;;;;;;;14.07;4.23;;;8.20;99.90;;;;;;5114140;28;20428;-66
2021/12/20 03:20:08;;;;;;;13.57;3.70;;;8.10;99.90;;;;;;5114142;28;20948;-66
2021/12/20 03:22:35;;;;;;;8.20;2.93;;;8.20;99.90;;;;;;5113980;28;20520;-66
2021/12/20 03:25:03;;;;;;;14.50;3.83;;;8.20;99.90;;;;;;5114004;28;20485;-66
2021/12/20 03:27:30;;;;;;;5.80;3.43;;;8.30;99.90;;;;;;5114112;28;20447;-66
2021/12/20 03:29:56;;;;;;;7.83;3.10;;;8.30;99.90;;;;;;5114045;28;20442;-66
2021/12/20 03:32:23;;;;;;;8.20;3.57;;;8.30;99.90;;;;;;5113963;28;20821;-66
2021/12/20 03:34:50;;;;;;;7.40;3.10;;;8.30;99.90;;;;;;5113937;28;20446;-66
2021/12/20 03:37:17;;;;;;;13.17;2.90;;;8.30;99.90;;;;;;5113983;28;20439;-67
2021/12/20 03:39:44;;;;;;;10.43;3.77;;;8.30;99.90;;;;;;5113947;28;20427;-66
2021/12/20 03:42:12;;;;;;;5.93;2.97;;;8.30;99.90;;;;;;5116619;28;20483;-66
2021/12/20 03:44:43;;;;;;;11.73;4.23;;;8.30;99.90;;;;;;5118094;28;20474;-66
2021/12/20 03:47:11;;;;;;;6.93;3.90;;;8.40;99.90;;;;;;5118149;28;20489;-66
2021/12/20 03:49:38;;;;;;;14.30;3.43;;;8.30;99.90;;;;;;5118105;28;20450;-66
2021/12/20 03:52:05;;;;;;;9.13;3.10;;;8.40;99.90;;;;;;5117983;28;20462;-66
2021/12/20 03:54:31;;;;;;;10.20;3.00;;;8.40;99.90;;;;;;5118010;27;20491;-66
2021/12/20 03:56:58;;;;;;;15.70;3.47;;;8.30;99.90;;;;;;5117926;28;20816;-66
2021/12/20 03:59:28;;;;;;;13.20;3.00;;;8.30;99.90;;;;;;5117605;28;20458;-66
2021/12/20 04:01:54;;;;;;;14.40;4.13;;;8.30;99.90;;;;;;5117748;28;20511;-66
2021/12/20 04:04:21;;;;;;;12.70;3.77;;;8.30;99.90;;;;;;5117810;27;20470;-66
2021/12/20 04:06:48;;;;;;;17.50;4.43;;;8.30;99.90;;;;;;5117776;28;20469;-66
2021/12/20 04:09:15;;;;;;;13.80;3.90;;;8.40;99.90;;;;;;5117709;28;20446;-66
2021/12/20 04:11:42;;;;;;;18.50;3.63;;;8.40;99.90;;;;;;5117646;28;20430;-66
2021/12/20 04:14:09;;;;;;;12.30;3.80;;;8.40;99.90;;;;;;5117667;28;20447;-66
2021/12/20 04:16:37;;;;;;;12.20;5.20;;;8.40;99.90;;;;;;5117616;27;20446;-66
2021/12/20 04:19:04;;;;;;;10.17;3.70;;;8.30;99.90;;;;;;5117564;28;20447;-66
2021/12/20 04:21:31;;;;;;;18.00;4.17;;;8.40;99.90;;;;;;5117510;27;20492;-66
2021/12/20 04:23:57;;;;;;;9.57;3.37;;;8.30;99.90;;;;;;5117008;28;20498;-66
2021/12/20 04:26:24;;;;;;;13.33;4.00;;;8.40;99.90;;;;;;5117409;28;20802;-66
2021/12/20 04:28:51;;;;;;;12.43;3.90;;;8.40;99.90;;;;;;5117365;28;20443;-66
2021/12/20 04:31:18;;;;;;;13.93;3.27;;;8.30;99.90;;;;;;5117302;28;20419;-66
2021/12/20 04:33:46;;;;;;;9.20;3.83;;;8.30;99.90;;;;;;5117193;28;20828;-66
2021/12/20 04:36:12;;;;;;;15.03;3.73;;;8.30;99.90;;;;;;5117215;27;20446;-66
2021/12/20 04:38:40;;;;;;;17.47;3.73;;;8.40;99.90;;;;;;5117175;28;20882;-66
2021/12/20 04:41:06;;;;;;;9.37;3.60;;;8.40;99.90;;;;;;5117054;28;20504;-66
2021/12/20 04:43:33;;;;;;;9.70;4.17;;;8.40;99.90;;;;;;5116995;28;20481;-66
2021/12/20 04:46:00;;;;;;;12.90;3.40;;;8.40;99.90;;;;;;5116860;28;20486;-66
2021/12/20 04:48:26;;;;;;;7.27;3.60;;;8.40;99.90;;;;;;5116938;28;20777;-66
2021/12/20 04:50:54;;;;;;;19.10;3.60;;;8.40;99.90;;;;;;5117155;28;20438;-66
2021/12/20 04:53:21;;;;;;;8.33;3.70;;;8.30;99.90;;;;;;5116746;28;20464;-66
2021/12/20 04:55:48;;;;;;;9.00;3.20;;;8.40;99.90;;;;;;5116848;28;20450;-66
2021/12/20 04:58:16;;;;;;;13.33;3.90;;;8.30;99.90;;;;;;5116601;28;20439;-66
2021/12/20 05:00:44;;;;;;;12.37;3.50;;;8.40;99.90;;;;;;5116795;28;20431;-66
2021/12/20 05:03:11;;;;;;;8.23;2.87;;;8.40;99.90;;;;;;5116620;28;20554;-66
2021/12/20 05:05:38;;;;;;;13.93;3.23;;;8.40;99.90;;;;;;5116246;28;20992;-66
2021/12/20 05:08:06;;;;;;;10.93;3.50;;;8.30;99.90;;;;;;5116645;28;20466;-66
2021/12/20 05:10:34;;;;;;;8.47;2.70;;;8.40;99.90;;;;;;5116551;28;20447;-66
2021/12/20 05:13:03;;;;;;;14.10;3.70;;;8.30;99.90;;;;;;5116470;28;20557;-66
2021/12/20 05:15:30;;;;;;;8.43;2.33;;;8.40;99.90;;;;;;5116458;28;20439;-66
2021/12/20 05:17:58;;;;;;;9.20;3.30;;;8.30;99.90;;;;;;5116491;28;20766;-66
2021/12/20 05:20:25;;;;;;;12.13;3.00;;;8.30;99.90;;;;;;5116380;28;20516;-66
2021/12/20 05:22:52;;;;;;;10.87;3.20;;;8.30;99.90;;;;;;5116282;28;20561;-66
2021/12/20 05:25:20;;;;;;;10.90;3.33;;;8.30;99.90;;;;;;5116199;28;20889;-66
2021/12/20 05:27:47;;;;;;;12.20;3.40;;;8.30;99.90;;;;;;5116165;28;20446;-66
2021/12/20 05:30:15;;;;;;;9.83;3.23;;;8.30;99.90;;;;;;5116968;28;20451;-66
2021/12/20 05:32:43;;;;;;;10.77;3.67;;;8.30;99.90;;;;;;5116064;28;20467;-66
2021/12/20 05:35:12;;;;;;;7.50;3.37;;;8.30;99.90;;;;;;5116064;28;20860;-66
2021/12/20 05:37:39;;;;;;;16.03;3.20;;;8.30;99.90;;;;;;5115679;28;20442;-66
2021/12/20 05:40:08;;;;;;;9.70;2.97;;;8.30;99.90;;;;;;5116020;28;20430;-66
2021/12/20 05:42:36;;;;;;;14.70;3.23;;;8.30;99.90;;;;;;5115903;28;20471;-66
2021/12/20 05:45:04;;;;;;;9.90;3.67;;;8.30;99.90;;;;;;5115777;28;20475;-66
2021/12/20 05:47:30;;;;;;;15.07;3.93;;;8.20;99.90;;;;;;5115887;27;20430;-66
2021/12/20 05:49:57;;;;;;;9.27;3.20;;;8.30;99.90;;;;;;5115804;28;20443;-66
2021/12/20 05:52:24;;;;;;;10.70;3.30;;;8.20;99.90;;;;;;5116184;28;20451;-67
2021/12/20 05:54:51;;;;;;;15.40;3.00;;;8.20;99.90;;;;;;5115817;28;20446;-66
2021/12/20 05:57:18;;;;;;;19.63;3.40;;;8.20;99.90;;;;;;5115882;28;20427;-67
2021/12/20 05:59:46;;;;;;;10.50;3.33;;;8.20;99.90;;;;;;5115745;28;20462;-66
2021/12/20 06:02:12;;;;;;;8.90;3.00;;;8.20;99.90;;;;;;5115571;28;20519;-66
2021/12/20 06:04:39;;;;;;;8.73;2.60;;;8.20;99.90;;;;;;5114933;28;20474;-66
2021/12/20 06:07:08;;;;;;;11.73;2.87;;;8.20;99.90;;;;;;5115548;28;20439;-66
2021/12/20 06:09:35;;;;;;;9.73;2.53;;;8.20;99.90;;;;;;5115193;28;21027;-66
2021/12/20 06:12:02;;;;;;;11.73;2.57;;;8.20;99.90;;;;;;5115285;28;20463;-66
2021/12/20 06:14:29;;;;;;;14.47;3.63;;;8.20;99.90;;;;;;5116223;28;20476;-66
2021/12/20 06:16:58;;;;;;;7.23;3.13;;;8.20;99.90;;;;;;5114979;28;20445;-66
2021/12/20 06:19:26;;;;;;;8.80;2.33;;;8.20;99.90;;;;;;5115171;28;20446;-66
2021/12/20 06:21:53;;;;;;;9.70;2.80;;;8.20;99.90;;;;;;5115154;28;20447;-66
2021/12/20 06:24:20;;;;;;;10.80;2.80;;;8.20;99.90;;;;;;5115069;28;20447;-66
2021/12/20 06:26:47;;;;;;;12.30;3.07;;;8.20;99.90;;;;;;5115095;28;20447;-66
2021/12/20 06:29:14;;;;;;;10.70;3.33;;;8.20;99.90;;;;;;5115033;27;20482;-66
2021/12/20 06:31:40;;;;;;;7.73;2.60;;;8.20;99.90;;;;;;5114999;28;20439;-66
2021/12/20 06:34:08;;;;;;;8.37;2.80;;;8.20;99.90;;;;;;5114898;28;20447;-67
2021/12/20 06:36:35;;;;;;;10.67;2.63;;;8.20;99.90;;;;;;5114861;28;20465;-67
2021/12/20 06:39:02;;;;;;;17.37;3.00;;;8.20;99.90;;;;;;5114871;28;20433;-67
2021/12/20 06:41:29;;;;;;;12.37;3.00;;;8.20;99.90;;;;;;5114469;28;20789;-67
2021/12/20 06:43:56;;;;;;;9.33;3.67;;;8.20;99.90;;;;;;5114657;28;20466;-66
2021/12/20 06:46:24;;;;;;;12.60;3.73;;;8.20;99.90;;;;;;5114603;28;20482;-66
2021/12/20 06:48:50;;;;;;;12.23;3.53;;;8.20;99.90;;;;;;5114682;28;20450;-66
2021/12/20 06:51:19;;;;;;;16.20;3.50;;;8.20;99.90;;;;;;5114611;28;20443;-66
2021/12/20 06:53:45;;;;;;;10.50;4.40;;;8.20;99.90;;;;;;5114489;28;20478;-67
2021/12/20 06:56:13;;;;;;;7.83;3.00;;;8.20;99.90;;;;;;5114674;28;20814;-66
2021/12/20 06:58:40;;;;;;;10.40;3.60;;;8.20;99.90;;;;;;5114063;28;20863;-66
2021/12/20 07:01:06;;;;;;;7.97;2.73;;;8.20;99.90;;;;;;5114432;28;20466;-66
2021/12/20 07:03:33;;;;;;;7.20;2.93;;;8.20;99.90;;;;;;5114346;28;20466;-66
2021/12/20 07:06:00;;;;;;;9.53;2.30;;;8.20;99.90;;;;;;5113987;27;20478;-66
2021/12/20 07:08:28;;;;;;;8.10;4.20;;;8.20;99.90;;;;;;5114330;28;20454;-66
2021/12/20 07:10:55;;;;;;;9.13;3.13;;;8.10;99.90;;;;;;5114324;28;20449;-66
2021/12/20 07:13:22;;;;;;;10.97;3.20;;;8.20;99.90;;;;;;5114196;28;20474;-67
2021/12/20 07:15:49;;;;;;;12.53;3.40;;;8.20;99.90;;;;;;5113421;28;20439;-67
2021/12/20 07:18:16;;;;;;;14.57;3.87;;;8.20;99.90;;;;;;5114167;28;20492;-66
2021/12/20 07:20:43;;;;;;;11.10;4.73;;;8.20;99.90;;;;;;5113874;28;20941;-66
2021/12/20 07:23:09;;;;;;;9.53;4.10;;;8.10;99.90;;;;;;5114112;28;20467;-66
2021/12/20 07:25:37;;;;;;;6.80;3.37;;;8.10;99.90;;;;;;5113712;28;20992;-66
2021/12/20 07:28:04;;;;;;;16.40;5.60;;;8.10;99.90;;;;;;5114138;28;20439;-67
2021/12/20 07:30:31;;;;;;;9.20;3.90;;;8.10;99.90;;;;;;5114061;28;20450;-66
2021/12/20 07:32:58;;;;;;;13.37;4.50;;;8.10;99.90;;;;;;5113952;28;20656;-66
2021/12/20 07:35:25;;;;;;;14.97;4.97;;;8.10;99.90;;;;;;5113978;28;20445;-66
2021/12/20 07:37:56;;;;;;;14.17;4.40;;;8.10;99.90;;;;;;5113954;28;20533;-66
2021/12/20 07:40:23;;;;;;;15.37;4.93;;;8.10;99.90;;;;;;5114017;28;20446;-66
2021/12/20 07:42:51;;;;;;;12.40;4.40;;;8.10;99.90;;;;;;5113874;28;20479;-66
2021/12/20 07:45:18;;;;;;;12.43;4.30;;;8.10;99.90;;;;;;5113897;28;20493;-66
2021/12/20 07:47:45;;;;;;;9.67;3.87;;;8.10;99.90;;;;;;5113930;28;20442;-66
2021/12/20 07:50:11;;;;;;;9.40;4.83;;;8.10;99.90;;;;;;5114001;28;20476;-66
2021/12/20 07:52:39;;;;;;;12.87;4.53;;;8.10;99.90;;;;;;5114037;28;20459;-66
2021/12/20 07:55:06;;;;;;;19.13;4.80;;;8.10;99.90;;;;;;5113881;28;20449;-65
2021/12/20 07:57:33;;;;;;;9.90;3.90;;;8.10;99.90;;;;;;5113822;28;20458;-65
2021/12/20 08:00:01;;;;;;;12.47;4.50;;;8.10;99.90;;;;;;5113475;28;20458;-65
2021/12/20 08:02:28;;;;;;;13.67;4.10;;;8.10;99.90;;;;;;5113257;28;20459;-65
2021/12/20 08:04:54;;;;;;;13.37;3.80;;;8.10;99.90;;;;;;5113776;28;20438;-65
2021/12/20 08:07:22;;;;;;;8.93;3.33;;;8.10;99.90;;;;;;5113372;28;20442;-65
2021/12/20 08:09:50;;;;;;;13.90;4.90;;;8.10;99.90;;;;;;5113774;28;20491;-65
2021/12/20 08:12:17;;;;;;;15.93;7.47;;;8.10;99.90;;;;;;5113543;28;20494;-65
2021/12/20 08:14:44;;;;;;;19.23;8.50;;;8.10;99.90;;;;;;5113368;28;20908;-65
2021/12/20 08:17:12;;;;;;;22.37;7.50;;;8.10;99.90;;;;;;5113578;28;20431;-65
2021/12/20 08:19:39;;;;;;;15.17;6.63;;;8.10;99.90;;;;;;5113305;28;20446;-65
2021/12/20 08:22:06;;;;;;;21.40;6.97;;;8.10;99.90;;;;;;5113572;28;20462;-66
2021/12/20 08:24:33;;;;;;;13.03;5.77;;;8.10;99.90;;;;;;5113585;28;20453;-65
2021/12/20 08:27:00;;;;;;;17.17;5.90;;;8.10;99.90;;;;;;5113515;28;20535;-65
2021/12/20 08:29:27;;;;;;;16.70;5.43;;;8.10;99.90;;;;;;5117283;27;20442;-65
2021/12/20 08:31:54;;;;;;;15.43;7.13;;;8.10;99.90;;;;;;5117198;28;20442;-65
2021/12/20 08:34:22;;;;;;;17.80;8.43;;;8.10;99.90;;;;;;5117338;28;20477;-65
2021/12/20 08:36:49;;;;;;;22.90;9.77;;;8.10;99.90;;;;;;5117226;28;20445;-65
2021/12/20 08:39:19;;;;;;;26.80;11.00;;;8.10;99.90;;;;;;5117214;28;20434;-65
2021/12/20 08:41:46;;;;;;;22.30;9.00;;;8.10;99.90;;;;;;5117354;28;20521;-65
2021/12/20 08:44:13;;;;;;;19.03;8.27;;;8.10;99.90;;;;;;5117053;28;20454;-65
2021/12/20 08:46:40;;;;;;;29.60;9.60;;;8.00;99.90;;;;;;5116929;28;20475;-65
2021/12/20 08:49:08;;;;;;;20.60;9.17;;;8.10;99.90;;;;;;5116721;28;20447;-65
2021/12/20 08:51:37;;;;;;;22.70;7.90;;;8.00;99.90;;;;;;5116896;28;20858;-65
2021/12/20 08:54:04;;;;;;;20.80;7.70;;;8.00;99.90;;;;;;5117040;27;20446;-65
2021/12/20 08:56:31;;;;;;;16.73;5.70;;;8.00;99.90;;;;;;5116859;28;20438;-65
2021/12/20 08:58:58;;;;;;;13.03;4.97;;;8.00;99.90;;;;;;5116394;28;20473;-65
2021/12/20 09:01:24;;;;;;;13.67;4.20;;;8.00;99.90;;;;;;5116872;28;20450;-65
2021/12/20 09:03:51;;;;;;;18.27;5.30;;;8.00;99.90;;;;;;5116681;28;20578;-65
2021/12/20 09:06:21;;;;;;;21.10;5.00;;;8.00;99.90;;;;;;5116522;28;20478;-65
2021/12/20 09:08:50;;;;;;;8.83;4.10;;;8.00;99.90;;;;;;5116640;28;20427;-65
2021/12/20 09:11:17;;;;;;;19.53;3.80;;;8.00;99.90;;;;;;5116294;28;20952;-65
2021/12/20 09:13:43;;;;;;;12.07;3.70;;;8.00;99.90;;;;;;5117154;28;20474;-65
2021/12/20 09:16:10;;;;;;;14.10;3.70;;;8.00;99.90;;;;;;5116486;27;20457;-65
2021/12/20 09:18:37;;;;;;;17.93;4.40;;;8.00;99.90;;;;;;5116385;27;20443;-65
2021/12/20 09:21:04;;;;;;;16.83;4.17;;;8.00;99.90;;;;;;5116347;28;20446;-65
2021/12/20 09:23:32;;;;;;;12.33;4.63;;;8.00;99.90;;;;;;5116243;28;20467;-65
2021/12/20 09:26:00;;;;;;;18.07;4.77;;;8.00;99.90;;;;;;5116281;28;20459;-65
2021/12/20 09:28:27;;;;;;;17.93;5.43;;;8.00;99.90;;;;;;5116318;28;20439;-65
2021/12/20 09:30:53;;;;;;;24.97;5.20;;;8.00;99.90;;;;;;5116197;28;20446;-65
2021/12/20 09:33:20;;;;;;;14.93;5.43;;;8.10;99.90;;;;;;5116142;28;20471;-65
2021/12/20 09:35:50;;;;;;;19.63;7.03;;;8.10;99.90;;;;;;5116919;28;20439;-65
2021/12/20 09:38:18;;;;;;;11.57;5.63;;;8.10;99.90;;;;;;5115879;28;20541;-65
2021/12/20 09:41:11;;;;;;;20.17;6.23;;;8.20;99.90;;;;;;5115262;28;20834;-65
2021/12/20 09:43:37;;;;;;;17.87;6.33;;;8.20;99.90;;;;;;5115426;28;20463;-65
2021/12/20 09:46:05;;;;;;;17.10;6.20;;;8.20;99.90;;;;;;5115883;28;20467;-65
2021/12/20 09:48:34;;;;;;;26.20;8.13;;;8.30;99.90;;;;;;5115874;28;20454;-65
2021/12/20 09:51:02;;;;;;;21.30;6.77;;;8.30;99.90;;;;;;5115744;28;20458;-65
2021/12/20 09:53:29;;;;;;;20.87;6.50;;;8.40;99.90;;;;;;5115440;28;20979;-65
2021/12/20 09:55:57;;;;;;;20.60;8.70;;;8.40;99.90;;;;;;5115659;28;20439;-65
2021/12/20 09:58:26;;;;;;;24.70;7.77;;;8.50;99.90;;;;;;5115504;28;20462;-65
2021/12/20 10:00:55;;;;;;;20.30;8.07;;;8.50;99.90;;;;;;5115332;28;20916;-65
2021/12/20 10:03:24;;;;;;;21.90;8.37;;;8.50;99.90;;;;;;5115499;28;20467;-65
2021/12/20 10:05:54;;;;;;;19.93;8.30;;;8.60;99.90;;;;;;5115483;28;20506;-65
2021/12/20 10:08:30;;;;;;;16.90;8.10;;;8.60;99.90;;;;;;5116512;28;20447;-65
2021/12/20 10:10:57;;;;;;;24.47;8.47;;;8.70;99.90;;;;;;5115469;27;20431;-65
2021/12/20 10:13:25;;;;;;;24.40;9.70;;;8.80;99.90;;;;;;5115288;28;20462;-65
2021/12/20 10:15:54;;;;;;;26.57;8.57;;;8.80;99.90;;;;;;5115303;28;20939;-65
2021/12/20 10:18:21;;;;;;;24.60;6.93;;;8.90;99.90;;;;;;5115298;28;20439;-65
2021/12/20 10:20:53;;;;;;;27.27;7.37;;;8.90;99.80;;;;;;5114847;28;20450;-65
2021/12/20 10:23:22;;;;;;;20.50;7.07;;;9.00;99.70;;;;;;5115126;28;20834;-65
2021/12/20 10:25:52;;;;;;;16.60;7.07;;;9.00;99.50;;;;;;5114736;28;20439;-65
2021/12/20 10:28:21;;;;;;;22.70;6.50;;;9.10;99.40;;;;;;5115044;28;20442;-65
2021/12/20 10:30:50;;;;;;;21.30;6.90;;;9.20;99.30;;;;;;5115353;28;20446;-65
2021/12/20 10:33:21;;;;;;;17.03;6.23;;;9.20;99.20;;;;;;5114879;28;20466;-65
2021/12/20 10:35:51;;;;;;;21.60;6.60;;;9.30;99.50;;;;;;5114992;28;20419;-66
2021/12/20 10:38:25;;;;;;;19.00;6.87;;;9.30;99.00;;;;;;5114878;28;20443;-65
2021/12/20 10:40:54;;;;;;;18.43;7.80;;;9.40;98.90;;;;;;5114862;28;20430;-65
2021/12/20 10:43:23;;;;;;;23.83;8.03;;;9.50;98.70;;;;;;5114399;28;20458;-65
2021/12/20 10:45:53;;;;;;;22.37;7.70;;;9.60;98.50;;;;;;5114541;28;20446;-65
2021/12/20 10:48:21;;;;;;;13.57;5.70;;;9.70;98.00;;;;;;5114419;28;20443;-65
2021/12/20 10:50:48;;;;;;;17.60;6.50;;;9.70;97.50;;;;;;5114552;28;20447;-65
2021/12/20 10:53:17;;;;;;;24.07;6.80;;;9.80;97.20;;;;;;5114494;28;20466;-65
2021/12/20 10:55:47;;;;;;;14.80;5.40;;;9.90;96.90;;;;;;5114579;28;20428;-65
2021/12/20 10:58:28;;;;;;;19.00;5.80;;;10.00;96.00;;;;;;5115128;28;20442;-65
2021/12/20 11:01:25;;;;;;;21.27;7.03;;;10.20;95.70;;;;;;5114494;28;20893;-65
2021/12/20 11:04:00;;;;;;;17.97;5.97;;;10.30;95.50;;;;;;5114374;28;20463;-65
2021/12/20 11:06:40;;;;;;;29.17;6.63;;;10.40;95.30;;;;;;5114311;28;20466;-65
2021/12/20 11:09:15;;;;;;;18.33;5.73;;;10.60;95.00;;;;;;5114304;28;20434;-65
2021/12/20 11:11:47;;;;;;;18.83;5.70;;;10.70;94.60;;;;;;5113935;28;20487;-66
2021/12/20 11:14:14;;;;;;;16.63;5.10;;;10.90;94.30;;;;;;5113957;28;20435;-66
2021/12/20 11:16:44;;;;;;;16.63;5.70;;;11.10;94.00;;;;;;5114234;28;20439;-66
2021/12/20 11:19:24;;;;;;;12.40;4.63;;;11.40;93.30;;;;;;5114197;28;20439;-66
2021/12/20 11:22:04;;;;;;;19.90;5.77;;;11.70;92.50;;;;;;5114125;28;20438;-66
2021/12/20 11:24:34;;;;;;;15.63;4.83;;;12.10;91.50;;;;;;5114094;27;20431;-66
2021/12/20 11:27:03;;;;;;;13.23;5.83;;;12.50;90.20;;;;;;5114177;28;20478;-66
2021/12/20 11:29:31;;;;;;;15.37;5.00;;;12.80;88.70;;;;;;5113716;28;20811;-66
2021/12/20 11:31:59;;;;;;;12.83;4.60;;;13.10;87.20;;;;;;5113959;28;20473;-66
2021/12/20 11:34:27;;;;;;;18.40;6.07;;;13.40;85.50;;;;;;5113730;28;20450;-66
2021/12/20 11:36:55;;;;;;;13.50;5.47;;;13.70;83.20;;;;;;5114031;28;20445;-66
2021/12/20 11:39:22;;;;;;;12.83;4.80;;;14.00;81.30;;;;;;5113920;28;20449;-66
2021/12/20 11:41:49;;;;;;;13.13;4.47;;;14.20;79.60;;;;;;5113849;28;20438;-66
2021/12/20 11:44:18;;;;;;;12.30;4.53;;;14.40;77.50;;;;;;5113916;28;20443;-66
2021/12/20 11:47:09;;;;;;;16.40;4.40;;;14.60;75.90;;;;;;5113794;28;20482;-66
2021/12/20 11:49:38;;;;;;;10.60;4.83;;;14.70;74.70;;;;;;5113941;28;20466;-66
2021/12/20 11:52:08;;;;;;;19.57;5.57;;;14.80;73.30;;;;;;5113521;28;20963;-66
2021/12/20 11:54:37;;;;;;;17.23;4.67;;;14.90;72.00;;;;;;5114129;28;20466;-66
2021/12/20 11:57:06;;;;;;;15.77;5.57;;;15.10;70.70;;;;;;5113795;28;20434;-66
2021/12/20 11:59:50;;;;;;;18.87;4.80;;;15.10;66.50;;;;;;5113390;28;20459;-66
2021/12/20 12:02:26;;;;;;;14.13;4.70;;;15.20;65.40;;;;;;5114089;28;20895;-66
2021/12/20 12:04:58;;;;;;;11.80;3.97;;;15.30;64.40;;;;;;5117973;28;20433;-66
2021/12/20 12:07:27;;;;;;;15.83;5.13;;;15.40;63.80;;;;;;5117851;28;20470;-66
2021/12/20 12:10:01;;;;;;;19.20;5.73;;;15.60;65.00;;;;;;5117898;28;20442;-66
2021/12/20 12:12:30;;;;;;;10.13;4.40;;;15.70;62.00;;;;;;5117867;28;20462;-66
2021/12/20 12:15:05;;;;;;;9.80;4.27;;;15.70;59.40;;;;;;5117742;27;20452;-66
2021/12/20 12:17:55;;;;;;;15.70;4.30;;;15.70;60.20;;;;;;5117599;28;20431;-66
2021/12/20 12:20:47;;;;;;;14.67;3.80;;;15.90;60.10;;;;;;5117595;27;20473;-66
2021/12/20 12:23:21;;;;;;;13.67;4.40;;;16.00;59.50;;;;;;5117095;28;20972;-66
2021/12/20 12:25:51;;;;;;;9.90;3.80;;;16.20;58.90;;;;;;5117468;27;20442;-66
2021/12/20 12:28:20;;;;;;;15.80;4.47;;;16.30;58.60;;;;;;5117991;28;20475;-66
2021/12/20 12:31:02;;;;;;;12.93;4.10;;;16.40;58.20;;;;;;5117441;28;20438;-66
2021/12/20 12:33:38;;;;;;;9.40;3.50;;;16.50;57.10;;;;;;5117319;28;20496;-66
2021/12/20 12:36:22;;;;;;;12.90;3.90;;;16.50;56.20;;;;;;5117377;28;20426;-66
2021/12/20 12:38:52;;;;;;;11.33;4.00;;;16.60;56.70;;;;;;5117250;28;20493;-66
2021/12/20 12:41:23;;;;;;;9.17;3.77;;;16.60;56.20;;;;;;5116910;28;20928;-66
2021/12/20 12:43:57;;;;;;;11.80;3.00;;;16.60;54.90;;;;;;5116736;28;20856;-66
2021/12/20 12:47:04;;;;;;;9.53;3.03;;;16.60;53.80;;;;;;5117012;28;20423;-66
2021/12/20 12:49:56;;;;;;;5.93;2.17;;;16.70;53.40;;;;;;5054078;28;20834;-66
2021/12/20 12:52:41;;;;;;;9.13;3.73;;;16.70;53.20;;;;;;5051325;28;20477;-66
2021/12/20 12:55:26;;;;;;;10.33;2.50;;;16.70;53.60;;;;;;5103042;28;20526;-66
2021/12/20 12:57:53;;;;;;;8.27;2.60;;;16.70;53.40;;;;;;5116667;28;20423;-66
2021/12/20 13:00:27;;;;;;;8.37;2.17;;;16.70;53.20;;;;;;5116486;28;20457;-66
2021/12/20 13:03:05;;;;;;;10.80;3.00;;;16.60;53.00;;;;;;5116769;28;20454;-66
2021/12/20 13:05:32;;;;;;;4.73;1.90;;;16.60;53.50;;;;;;5117621;28;20427;-66